King And Queen Court Hous, Virginia
Current Conditions -  °F | °C
As of 11:15 AM on Friday 21 Nov 2014 (Local Time) from KXSA Reporting Station
Clear Clear  
Wind Chill: 33°   Ceiling: Unl
Heat Index: 38°   Visibility: 10mi
Dew Point:   Wind: 7mph
Humidity: 25%   Direction: 300°WNW
Pressure: 30.46"   Gusts: NA
Location:  37.7018°N, 76.9162°W
Report Text: KXSA 211615Z AUTO 30006KT 10SM CLR 03/M15 A3046 RMK AO2 T00331151
Loading
Personal Weather Stations






























Interactive Weather Map New forecast layout! Learn more

10-Day Weather Forecast

Advertisements
Track Severe Weather on mobile